Time;durP1;ratioP1;P1;durP2;ratioP2;P2;SDS_P1;SDS_P2;PMS_P1;PMS_P2;Temp;Humidity;BMP_temperature;BMP_pressure;BME280_temperature;BME280_humidity;BME280_pressure;Samples;Min_cycle;Max_cycle;Signal;HPM_P1;HPM_P2
2021/12/30 00:00:15;;;;;;;32.53;20.48;;;;;;;14.77;81.34;99206.28;5090735;28;20378;-51
2021/12/30 00:02:40;;;;;;;32.10;18.50;;;;;;;14.87;81.68;99216.38;5091910;28;20046;-50
2021/12/30 00:05:07;;;;;;;27.45;18.52;;;;;;;14.84;81.64;99216.81;5090662;28;20028;-51
2021/12/30 00:07:33;;;;;;;244.23;39.05;;;;;;;14.95;82.40;99210.00;5090642;28;20436;-51
2021/12/30 00:09:59;;;;;;;56.80;19.25;;;;;;;14.96;82.23;99209.00;5091976;28;20028;-51
2021/12/30 00:12:24;;;;;;;25.48;21.77;;;;;;;14.88;81.82;99207.44;5091890;28;20016;-52
2021/12/30 00:14:50;;;;;;;114.35;101.15;;;;;;;14.77;82.45;99205.50;5091924;28;20024;-51
2021/12/30 00:17:16;;;;;;;129.32;38.55;;;;;;;14.76;82.54;99212.59;5091831;28;20019;-51
2021/12/30 00:19:42;;;;;;;115.85;97.53;;;;;;;14.71;82.58;99214.28;5091839;28;20858;-51
2021/12/30 00:22:09;;;;;;;81.60;52.63;;;;;;;14.62;82.44;99212.91;5091839;28;20020;-52
2021/12/30 00:24:34;;;;;;;38.70;26.55;;;;;;;14.60;82.74;99212.31;5091709;28;20489;-52
2021/12/30 00:27:00;;;;;;;121.65;26.05;;;;;;;14.63;82.87;99214.50;5090390;28;20039;-51
2021/12/30 00:29:26;;;;;;;113.38;24.00;;;;;;;14.48;82.37;99210.31;5091819;28;20021;-52
2021/12/30 00:31:52;;;;;;;26.63;20.00;;;;;;;14.33;82.28;99215.09;5090352;28;20020;-51
2021/12/30 00:34:18;;;;;;;29.27;19.48;;;;;;;14.27;83.07;99210.66;5093939;28;20048;-51
2021/12/30 00:36:44;;;;;;;41.83;20.58;;;;;;;14.33;83.17;99215.88;5095820;28;20398;-51
2021/12/30 00:39:09;;;;;;;25.95;19.48;;;;;;;14.38;83.25;99216.06;5095772;28;20036;-52
2021/12/30 00:41:35;;;;;;;25.73;20.08;;;;;;;14.41;83.51;99214.84;5095707;28;20107;-51
2021/12/30 00:44:01;;;;;;;25.77;17.95;;;;;;;14.40;83.05;99215.84;5095697;28;20067;-52
2021/12/30 00:46:27;;;;;;;23.90;17.35;;;;;;;14.32;82.98;99224.00;5095637;28;20024;-51
2021/12/30 00:48:53;;;;;;;34.58;18.75;;;;;;;14.32;82.88;99216.09;5095606;28;20047;-51
2021/12/30 00:51:19;;;;;;;28.20;17.33;;;;;;;14.35;82.92;99219.13;5095729;28;20489;-51
2021/12/30 00:53:45;;;;;;;26.92;18.13;;;;;;;14.33;82.72;99212.44;5095539;28;20035;-51
2021/12/30 00:56:11;;;;;;;35.78;20.25;;;;;;;14.32;82.64;99210.81;5095505;28;20020;-51
2021/12/30 00:58:36;;;;;;;639.35;541.17;;;;;;;14.36;83.01;99219.94;5095422;28;20024;-51
2021/12/30 01:01:04;;;;;;;85.47;69.63;;;;;;;14.46;83.32;99216.84;5095394;28;20118;-51
2021/12/30 01:03:31;;;;;;;183.50;149.45;;;;;;;14.47;83.60;99216.63;5095297;28;20032;-52
2021/12/30 01:05:57;;;;;;;74.97;65.35;;;;;;;14.56;83.50;99219.84;5095337;28;20485;-52
2021/12/30 01:08:23;;;;;;;30.90;25.52;;;;;;;14.54;83.02;99222.66;5095261;28;20031;-51
2021/12/30 01:10:49;;;;;;;30.20;20.23;;;;;;;14.48;82.96;99230.63;5095177;28;20027;-51
2021/12/30 01:13:21;;;;;;;21.35;19.05;;;;;;;14.46;82.95;99224.75;5095163;28;20031;-52
2021/12/30 01:18:33;;;;;;;19.52;16.98;;;;;;;14.67;82.88;99229.75;5095444;28;20474;-52
2021/12/30 01:21:00;;;;;;;20.08;16.50;;;;;;;14.56;81.69;99231.22;5095001;28;20036;-52
2021/12/30 01:23:26;;;;;;;21.98;18.00;;;;;;;14.55;82.35;99231.41;5094892;28;20106;-51
2021/12/30 01:25:52;;;;;;;59.75;19.33;;;;;;;14.57;82.43;99224.91;5094935;28;20048;-51
2021/12/30 01:28:19;;;;;;;45.55;16.70;;;;;;;14.52;82.11;99229.19;5094963;28;20098;-52
2021/12/30 01:30:45;;;;;;;21.67;15.93;;;;;;;14.34;81.71;99233.34;5094812;28;20024;-52
2021/12/30 01:33:11;;;;;;;35.72;29.85;;;;;;;14.26;82.39;99227.50;5093792;28;20119;-52
2021/12/30 01:35:37;;;;;;;22.55;17.23;;;;;;;14.30;82.99;99228.69;5094563;28;20628;-52
2021/12/30 01:38:05;;;;;;;32.88;17.70;;;;;;;14.27;83.12;99237.84;5094643;28;20158;-51
2021/12/30 01:40:32;;;;;;;22.92;17.90;;;;;;;14.34;83.50;99232.53;5094609;28;20027;-51
2021/12/30 01:42:58;;;;;;;21.17;14.60;;;;;;;14.43;83.72;99233.91;5094458;28;20417;-52
2021/12/30 01:45:24;;;;;;;60.65;19.33;;;;;;;14.43;83.33;99233.09;5094074;28;20024;-52
2021/12/30 01:47:52;;;;;;;18.42;15.27;;;;;;;14.50;83.35;99231.22;5093142;28;20020;-51
2021/12/30 01:50:19;;;;;;;16.55;14.70;;;;;;;14.51;83.31;99235.50;5094473;28;20041;-52
2021/12/30 01:52:45;;;;;;;16.00;12.55;;;;;;;14.50;83.37;99239.97;5094404;28;20508;-52
2021/12/30 01:55:13;;;;;;;19.13;13.63;;;;;;;14.54;83.80;99237.72;5094340;28;20032;-52
2021/12/30 01:57:39;;;;;;;24.92;17.13;;;;;;;14.58;84.18;99241.56;5094353;28;20454;-52
2021/12/30 02:00:11;;;;;;;16.92;13.00;;;;;;;14.67;84.39;99234.19;5094205;28;20082;-52
2021/12/30 02:02:37;;;;;;;14.05;12.52;;;;;;;14.70;83.92;99242.50;5094336;28;20052;-52
2021/12/30 02:05:03;;;;;;;32.60;20.77;;;;;;;14.70;84.43;99231.13;5094122;28;20089;-52
2021/12/30 02:07:29;;;;;;;27.77;25.20;;;;;;;14.75;84.40;99244.53;5094162;28;20103;-52
2021/12/30 02:10:00;;;;;;;16.77;14.02;;;;;;;14.81;84.61;99230.47;5094086;28;20048;-52
2021/12/30 02:12:36;;;;;;;12.57;10.77;;;;;;;15.03;84.30;99238.84;5094133;28;20020;-52
2021/12/30 02:15:11;;;;;;;11.65;9.05;;;;;;;15.05;83.08;99233.31;5094014;28;20024;-51
2021/12/30 02:17:38;;;;;;;14.70;12.65;;;;;;;14.92;82.43;99242.97;5092685;28;20031;-51
2021/12/30 02:20:13;;;;;;;21.27;11.02;;;;;;;14.79;82.08;99245.72;5092498;28;20050;-52
2021/12/30 02:22:39;;;;;;;13.85;10.55;;;;;;;14.74;81.88;99250.81;5093851;28;20482;-51
2021/12/30 02:25:06;;;;;;;10.57;9.38;;;;;;;14.66;81.80;99251.09;5093711;28;20028;-52
2021/12/30 02:27:31;;;;;;;19.38;12.90;;;;;;;14.57;81.25;99240.78;5092488;28;20052;-51
2021/12/30 02:29:57;;;;;;;10.23;8.45;;;;;;;14.54;81.64;99246.44;5093689;28;20052;-51
2021/12/30 02:32:25;;;;;;;6.10;5.22;;;;;;;14.63;82.21;99247.03;5093624;28;20421;-51
2021/12/30 02:34:52;;;;;;;10.88;6.10;;;;;;;14.78;82.39;99246.72;5092048;28;20123;-52
2021/12/30 02:37:19;;;;;;;5.93;4.82;;;;;;;14.91;82.36;99241.38;5093469;28;20112;-52
2021/12/30 02:39:53;;;;;;;12.13;10.68;;;;;;;15.03;82.36;99249.41;5093552;28;20024;-51
2021/12/30 02:42:22;;;;;;;7.15;4.60;;;;;;;15.14;82.15;99245.25;5093415;28;20378;-51
2021/12/30 02:44:48;;;;;;;8.25;6.13;;;;;;;15.22;82.12;99252.91;5091979;28;20023;-51
2021/12/30 02:47:14;;;;;;;15.15;11.43;;;;;;;15.26;81.81;99251.44;5093367;28;20020;-51
2021/12/30 02:49:41;;;;;;;8.73;5.40;;;;;;;15.25;81.48;99251.66;5093340;28;20035;-51
2021/12/30 02:52:06;;;;;;;5.20;3.30;;;;;;;15.23;81.49;99256.34;5091917;28;20454;-51
2021/12/30 02:54:32;;;;;;;8.93;4.93;;;;;;;15.27;81.54;99255.72;5093224;28;20024;-51
2021/12/30 02:56:58;;;;;;;8.80;7.10;;;;;;;15.28;81.03;99248.59;5092305;28;20401;-50
2021/12/30 02:59:24;;;;;;;10.07;8.93;;;;;;;15.24;80.87;99255.34;5093143;28;20020;-51
2021/12/30 03:01:49;;;;;;;17.10;13.02;;;;;;;15.25;80.67;99254.31;5093105;28;20401;-50
2021/12/30 03:04:15;;;;;;;15.88;11.40;;;;;;;15.26;80.04;99248.81;5092944;28;20016;-51
2021/12/30 03:06:42;;;;;;;13.73;10.15;;;;;;;15.23;80.17;99261.66;5092998;28;20019;-50
2021/12/30 03:09:07;;;;;;;16.63;12.55;;;;;;;15.27;80.02;99263.66;5091622;28;20093;-51
2021/12/30 03:11:33;;;;;;;21.15;15.02;;;;;;;15.32;79.90;99268.28;5092860;28;20020;-51
2021/12/30 03:14:01;;;;;;;13.48;10.88;;;;;;;15.31;79.99;99272.78;5091520;28;20413;-51
2021/12/30 03:16:35;;;;;;;14.30;10.45;;;;;;;15.34;80.14;99268.88;5092861;28;20031;-51
2021/12/30 03:19:01;;;;;;;11.63;6.25;;;;;;;15.38;80.06;99272.72;5091698;28;20455;-51
2021/12/30 03:21:27;;;;;;;16.48;9.25;;;;;;;15.35;79.81;99270.50;5092718;28;20027;-51
2021/12/30 03:23:54;;;;;;;23.55;21.05;;;;;;;15.47;79.76;99267.94;5091310;28;20024;-50
2021/12/30 03:26:22;;;;;;;12.13;9.77;;;;;;;15.54;79.30;99269.50;5092612;28;20023;-51
2021/12/30 03:28:48;;;;;;;14.27;12.73;;;;;;;15.51;78.61;99272.59;5092559;28;20028;-50
2021/12/30 03:31:17;;;;;;;15.40;11.85;;;;;;;15.28;78.30;99265.25;5092472;28;20137;-50
2021/12/30 03:33:43;;;;;;;15.45;12.45;;;;;;;15.17;78.96;99268.59;5090912;28;20061;-51
2021/12/30 03:36:10;;;;;;;18.35;15.85;;;;;;;15.15;79.49;99274.13;5091134;28;20458;-50
2021/12/30 03:38:39;;;;;;;90.63;15.65;;;;;;;15.20;80.01;99273.47;5092396;28;20028;-51
2021/12/30 03:41:07;;;;;;;21.70;15.05;;;;;;;15.03;79.73;99280.31;5092364;28;20019;-51
2021/12/30 03:43:34;;;;;;;171.18;15.75;;;;;;;14.81;79.82;99275.38;5092226;28;20035;-51
2021/12/30 03:46:00;;;;;;;122.55;14.23;;;;;;;14.56;79.88;99278.75;5092232;28;20020;-51
2021/12/30 03:48:32;;;;;;;43.50;16.65;;;;;;;14.47;80.94;99277.38;5090944;28;20554;-51
2021/12/30 03:51:04;;;;;;;53.17;41.70;;;;;;;14.61;81.97;99280.78;5092273;28;20020;-51
2021/12/30 03:53:30;;;;;;;31.33;17.85;;;;;;;14.80;82.23;99286.97;5092187;28;20045;-52
2021/12/30 03:55:56;;;;;;;51.70;29.65;;;;;;;14.76;81.48;99288.41;5092190;28;20031;-52
2021/12/30 03:58:21;;;;;;;31.02;17.88;;;;;;;14.75;82.50;99290.25;5092133;28;20020;-52
2021/12/30 04:00:47;;;;;;;33.65;14.43;;;;;;;14.88;82.48;99293.84;5092055;28;20477;-52
2021/12/30 04:03:13;;;;;;;49.50;35.25;;;;;;;14.88;82.59;99293.84;5091958;28;20020;-52
2021/12/30 04:05:39;;;;;;;66.22;15.15;;;;;;;14.80;82.75;99297.53;5090646;28;20165;-52
2021/12/30 04:08:07;;;;;;;167.77;15.60;;;;;;;14.55;81.85;99294.81;5091806;28;20028;-52
2021/12/30 04:10:34;;;;;;;28.83;14.90;;;;;;;14.23;82.01;99297.38;5091967;28;20485;-52
2021/12/30 04:12:59;;;;;;;63.85;13.85;;;;;;;14.22;82.74;99300.22;5091912;28;20032;-52
2021/12/30 04:15:25;;;;;;;47.85;19.05;;;;;;;14.17;82.93;99301.66;5091894;28;20026;-52
2021/12/30 04:17:51;;;;;;;25.95;14.50;;;;;;;14.13;83.23;99303.09;5091890;28;20065;-52
2021/12/30 04:20:17;;;;;;;47.70;15.82;;;;;;;14.27;83.85;99306.50;5091910;28;20547;-52
2021/12/30 04:22:43;;;;;;;25.23;14.75;;;;;;;14.35;83.68;99306.25;5090459;28;20085;-52
2021/12/30 04:25:11;;;;;;;28.77;14.18;;;;;;;14.42;83.96;99303.59;5091814;28;20016;-52
2021/12/30 04:27:37;;;;;;;17.75;13.05;;;;;;;14.47;83.59;99313.53;5091797;28;20055;-52
2021/12/30 04:30:05;;;;;;;25.20;20.48;;;;;;;14.42;83.50;99324.72;5091840;28;20043;-52
2021/12/30 04:32:31;;;;;;;18.98;12.60;;;;;;;14.37;83.67;99325.34;5091824;28;20393;-52
2021/12/30 04:34:57;;;;;;;22.92;12.20;;;;;;;14.30;83.12;99316.63;5091566;28;20032;-52
2021/12/30 04:37:22;;;;;;;22.48;13.02;;;;;;;14.27;83.39;99324.19;5091765;28;20069;-52
2021/12/30 04:39:48;;;;;;;42.53;31.02;;;;;;;14.28;83.78;99333.72;5091766;28;20428;-53
2021/12/30 04:42:14;;;;;;;17.42;14.73;;;;;;;14.43;83.24;99323.72;5091703;28;20055;-52
2021/12/30 04:44:39;;;;;;;22.67;13.98;;;;;;;14.41;82.87;99328.38;5091551;28;20115;-53
2021/12/30 04:47:06;;;;;;;22.83;14.60;;;;;;;14.40;83.24;99326.75;5091933;28;20103;-53
2021/12/30 04:49:32;;;;;;;29.08;13.50;;;;;;;14.45;83.44;99324.31;5091637;28;20020;-52
2021/12/30 04:51:59;;;;;;;20.42;13.18;;;;;;;14.46;83.19;99325.91;5091626;28;20389;-53
2021/12/30 04:54:25;;;;;;;25.52;14.75;;;;;;;14.44;83.10;99327.16;5091593;28;20588;-52
2021/12/30 04:56:51;;;;;;;16.67;13.07;;;;;;;14.43;83.00;99331.63;5091513;28;20119;-53
2021/12/30 04:59:17;;;;;;;12.75;10.85;;;;;;;14.46;82.79;99330.41;5091521;28;20032;-52
2021/12/30 05:01:43;;;;;;;55.30;14.10;;;;;;;14.40;82.22;99334.69;5090131;28;20439;-52
2021/12/30 05:04:08;;;;;;;15.70;12.75;;;;;;;14.25;82.11;99329.66;5091405;28;20024;-52
2021/12/30 05:06:36;;;;;;;77.70;14.00;;;;;;;14.21;82.01;99328.47;5091375;28;20020;-53
2021/12/30 05:09:03;;;;;;;18.33;12.55;;;;;;;14.08;81.82;99337.19;5091465;28;20025;-53
2021/12/30 05:11:29;;;;;;;55.75;41.72;;;;;;;14.05;82.05;99331.56;5091377;28;20494;-53
2021/12/30 05:13:54;;;;;;;110.57;100.20;;;;;;;14.02;82.04;99337.22;5091387;28;20035;-52
2021/12/30 05:16:20;;;;;;;69.68;62.80;;;;;;;14.05;82.21;99337.63;5091361;28;20408;-53
2021/12/30 05:18:48;;;;;;;30.02;26.08;;;;;;;14.07;82.23;99343.50;5090013;28;20032;-52
2021/12/30 05:21:14;;;;;;;22.45;15.02;;;;;;;14.10;81.99;99340.44;5095003;28;20016;-53
2021/12/30 05:23:39;;;;;;;16.27;13.70;;;;;;;14.10;81.88;99342.28;5094823;28;20028;-52
2021/12/30 05:26:05;;;;;;;22.90;13.05;;;;;;;14.14;82.20;99340.84;5094946;28;20472;-52
2021/12/30 05:28:31;;;;;;;19.63;14.10;;;;;;;14.30;82.21;99342.22;5094896;28;20052;-52
2021/12/30 05:30:57;;;;;;;14.48;12.10;;;;;;;14.42;81.99;99353.75;5093506;28;20440;-52
2021/12/30 05:33:22;;;;;;;29.08;13.75;;;;;;;14.47;81.68;99353.97;5094841;28;20028;-53
2021/12/30 05:35:48;;;;;;;53.13;14.20;;;;;;;14.44;81.22;99354.38;5094488;28;20183;-52
2021/12/30 05:38:17;;;;;;;37.75;12.73;;;;;;;14.38;81.21;99353.34;5094713;28;20020;-52
2021/12/30 05:40:42;;;;;;;65.03;12.93;;;;;;;14.37;81.16;99357.03;5094680;28;20024;-53
2021/12/30 05:43:08;;;;;;;89.65;12.98;;;;;;;14.29;80.78;99359.91;5093254;28;20085;-53
2021/12/30 05:45:34;;;;;;;21.23;13.73;;;;;;;14.18;81.07;99363.19;5094557;28;20028;-52
2021/12/30 05:48:00;;;;;;;18.77;12.85;;;;;;;14.26;81.53;99368.22;5094566;28;20052;-52
2021/12/30 05:50:28;;;;;;;41.13;13.45;;;;;;;14.35;81.35;99366.19;5094448;28;20024;-53
2021/12/30 05:52:54;;;;;;;82.72;13.93;;;;;;;14.33;80.95;99370.88;5094401;28;20099;-52
2021/12/30 05:55:20;;;;;;;34.72;12.13;;;;;;;14.27;81.06;99375.16;5094389;28;20107;-52
2021/12/30 05:57:46;;;;;;;113.93;33.15;;;;;;;14.27;80.98;99371.69;5093020;28;20026;-52
2021/12/30 06:00:18;;;;;;;79.07;15.15;;;;;;;14.22;81.08;99372.31;5094278;28;20100;-53
2021/12/30 06:02:44;;;;;;;22.58;14.20;;;;;;;14.18;81.77;99374.56;5092957;28;20455;-52
2021/12/30 06:05:10;;;;;;;208.10;23.38;;;;;;;14.24;82.24;99380.03;5094076;28;20529;-52
2021/12/30 06:07:36;;;;;;;23.05;14.05;;;;;;;14.33;82.89;99379.59;5092787;28;20024;-52
2021/12/30 06:10:04;;;;;;;29.50;13.93;;;;;;;14.37;82.98;99386.09;5094107;28;20031;-52
2021/12/30 06:12:29;;;;;;;37.95;19.15;;;;;;;14.41;83.12;99383.84;5092720;28;20024;-52
2021/12/30 06:14:55;;;;;;;31.95;15.73;;;;;;;14.46;83.22;99384.00;5093975;28;20040;-53
2021/12/30 06:17:21;;;;;;;23.95;12.93;;;;;;;14.44;82.96;99393.97;5093995;28;20044;-52
2021/12/30 06:19:47;;;;;;;87.00;23.27;;;;;;;14.39;82.83;99393.81;5093914;28;20062;-53
2021/12/30 06:22:13;;;;;;;17.13;11.15;;;;;;;14.40;82.93;99392.78;5093784;28;20052;-53
2021/12/30 06:24:41;;;;;;;36.67;29.80;;;;;;;14.37;82.72;99407.22;5092441;28;20145;-52
2021/12/30 06:27:07;;;;;;;55.47;45.40;;;;;;;14.45;82.71;99403.53;5092435;28;20024;-53
2021/12/30 06:29:34;;;;;;;21.73;19.42;;;;;;;14.53;81.88;99399.88;5093752;28;20021;-53
2021/12/30 06:32:00;;;;;;;37.17;21.80;;;;;;;14.53;81.80;99408.59;5092401;28;20031;-52
2021/12/30 06:34:26;;;;;;;30.00;13.63;;;;;;;14.42;81.09;99409.22;5093481;28;20043;-52
2021/12/30 06:36:52;;;;;;;27.38;15.80;;;;;;;14.27;80.93;99412.09;5093553;28;20501;-52
2021/12/30 06:39:18;;;;;;;20.45;14.05;;;;;;;14.14;81.12;99414.75;5093503;28;20020;-53
2021/12/30 06:41:44;;;;;;;16.05;13.15;;;;;;;14.06;80.68;99407.06;5093430;28;20105;-53
2021/12/30 06:44:09;;;;;;;18.13;12.90;;;;;;;13.91;80.39;99410.72;5093362;28;20030;-52
2021/12/30 06:46:35;;;;;;;16.33;12.13;;;;;;;13.78;80.87;99408.91;5093338;28;20111;-53
2021/12/30 06:49:07;;;;;;;24.77;15.80;;;;;;;13.81;81.25;99412.16;5093369;28;20016;-52
2021/12/30 06:51:35;;;;;;;18.90;12.35;;;;;;;13.86;81.67;99413.16;5093323;28;20032;-52
2021/12/30 06:54:02;;;;;;;20.20;12.85;;;;;;;14.02;81.73;99414.56;5093227;28;20081;-51
2021/12/30 06:56:28;;;;;;;19.77;13.30;;;;;;;14.14;81.35;99417.41;5093271;28;20055;-53
2021/12/30 06:58:54;;;;;;;14.02;10.05;;;;;;;14.28;81.26;99416.34;5093178;28;20052;-52
2021/12/30 07:01:20;;;;;;;18.77;14.65;;;;;;;14.34;81.00;99412.09;5093121;28;20370;-52
2021/12/30 07:03:45;;;;;;;18.73;11.80;;;;;;;14.35;80.88;99419.00;5092944;28;20022;-53
2021/12/30 07:06:11;;;;;;;16.80;12.40;;;;;;;14.21;80.58;99417.41;5093000;28;20047;-52
2021/12/30 07:08:37;;;;;;;17.05;12.38;;;;;;;13.87;81.23;99409.50;5093038;28;20024;-52
2021/12/30 07:11:03;;;;;;;17.08;11.20;;;;;;;13.56;82.31;99412.75;5091588;28;20596;-51
2021/12/30 07:13:29;;;;;;;15.43;9.57;;;;;;;13.36;83.33;99413.53;5092901;28;20056;-52
2021/12/30 07:15:55;;;;;;;14.98;9.48;;;;;;;13.17;83.80;99427.47;5092789;28;20561;-52
2021/12/30 07:18:20;;;;;;;19.08;11.05;;;;;;;12.99;84.21;99423.53;5091494;28;20093;-52
2021/12/30 07:20:46;;;;;;;20.23;12.27;;;;;;;12.79;84.69;99425.28;5092658;28;20032;-52
2021/12/30 07:23:12;;;;;;;22.73;11.60;;;;;;;12.68;85.34;99428.50;5092704;28;20019;-52
2021/12/30 07:25:38;;;;;;;22.08;12.63;;;;;;;12.69;85.96;99438.81;5092696;28;20504;-52
2021/12/30 07:28:04;;;;;;;24.58;12.55;;;;;;;12.78;86.24;99434.22;5092562;28;20024;-51
2021/12/30 07:30:30;;;;;;;26.92;13.35;;;;;;;12.94;86.36;99443.63;5092617;28;20413;-52
2021/12/30 07:32:56;;;;;;;15.02;10.02;;;;;;;13.27;86.51;99442.91;5092539;28;20069;-52
2021/12/30 07:35:22;;;;;;;286.17;257.60;;;;;;;13.48;86.54;99445.41;5092090;28;20048;-52
2021/12/30 07:37:49;;;;;;;450.20;404.27;;;;;;;13.66;86.15;99442.19;5092404;28;20035;-52
2021/12/30 07:40:16;;;;;;;205.38;184.07;;;;;;;13.88;85.97;99442.78;5092404;28;20566;-52
2021/12/30 07:42:42;;;;;;;35.60;23.67;;;;;;;14.12;85.52;99443.19;5092029;28;20528;-52
2021/12/30 07:45:09;;;;;;;25.95;13.52;;;;;;;14.29;84.71;99440.94;5092216;28;20058;-51
2021/12/30 07:47:36;;;;;;;63.63;21.65;;;;;;;14.34;83.79;99444.56;5090969;28;20048;-51
2021/12/30 07:50:03;;;;;;;42.58;15.80;;;;;;;14.37;83.35;99446.81;5092225;28;20398;-51
2021/12/30 07:52:28;;;;;;;26.35;12.23;;;;;;;14.41;83.01;99449.03;5092264;28;20016;-49
2021/12/30 07:54:54;;;;;;;23.70;14.38;;;;;;;14.49;82.71;99446.19;5092107;28;20043;-50
2021/12/30 07:57:23;;;;;;;24.88;12.90;;;;;;;14.61;82.13;99449.03;5092110;28;20528;-51
2021/12/30 07:59:50;;;;;;;27.85;15.50;;;;;;;14.60;81.65;99447.41;5090793;28;20020;-51
2021/12/30 08:02:16;;;;;;;21.55;15.43;;;;;;;14.58;82.17;99445.78;5092129;28;20509;-51
2021/12/30 08:04:42;;;;;;;38.53;15.15;;;;;;;14.55;81.27;99455.94;5092023;28;20024;-51
2021/12/30 08:07:08;;;;;;;26.65;14.65;;;;;;;14.60;82.37;99453.50;5092041;28;20029;-51
2021/12/30 08:09:34;;;;;;;17.13;14.48;;;;;;;14.62;82.12;99464.66;5091996;28;20016;-52
2021/12/30 08:12:00;;;;;;;23.55;13.35;;;;;;;14.58;82.31;99456.34;5091889;28;20050;-51
2021/12/30 08:14:27;;;;;;;16.83;11.57;;;;;;;14.54;81.99;99451.66;5091982;28;20035;-52
2021/12/30 08:16:53;;;;;;;15.15;11.43;;;;;;;14.48;81.67;99455.94;5091893;28;20498;-51
2021/12/30 08:19:18;;;;;;;23.17;12.00;;;;;;;14.53;81.87;99456.13;5091882;28;20519;-51
2021/12/30 08:21:44;;;;;;;13.35;10.27;;;;;;;14.60;81.65;99455.34;5091817;28;20417;-51
2021/12/30 08:24:11;;;;;;;31.98;11.45;;;;;;;14.56;80.95;99457.56;5092261;28;20035;-51
2021/12/30 08:26:37;;;;;;;96.93;84.20;;;;;;;14.67;81.44;99464.88;5091851;28;20859;-51
2021/12/30 08:29:04;;;;;;;28.98;19.17;;;;;;;14.91;80.08;99455.44;5091808;28;20405;-51
2021/12/30 08:31:29;;;;;;;23.75;10.43;;;;;;;15.03;79.64;99463.53;5091794;28;20107;-51
2021/12/30 08:33:55;;;;;;;15.45;9.77;;;;;;;15.09;79.55;99462.69;5091519;28;20507;-53
2021/12/30 08:36:21;;;;;;;17.85;10.30;;;;;;;15.16;79.49;99457.34;5090471;28;20028;-51
2021/12/30 08:38:47;;;;;;;32.83;9.88;;;;;;;15.22;78.42;99463.66;5091738;28;20013;-51
2021/12/30 08:41:13;;;;;;;42.88;10.30;;;;;;;15.08;78.41;99462.91;5091976;28;20116;-50
2021/12/30 08:43:39;;;;;;;16.98;11.70;;;;;;;15.05;78.43;99455.38;5091611;28;20028;-51
2021/12/30 08:46:05;;;;;;;38.53;12.88;;;;;;;15.15;78.28;99453.06;5091611;28;20031;-50
2021/12/30 08:48:30;;;;;;;28.27;10.73;;;;;;;15.46;78.14;99454.16;5091601;28;20103;-51
2021/12/30 08:50:56;;;;;;;10.70;8.45;;;;;;;15.76;76.74;99462.31;5091648;28;20102;-51
2021/12/30 08:53:25;;;;;;;18.13;10.25;;;;;;;15.86;75.87;99457.34;5091614;28;20054;-50
2021/12/30 08:55:52;;;;;;;16.65;9.80;;;;;;;15.97;75.98;99461.94;5094992;28;20101;-50
2021/12/30 08:58:18;;;;;;;12.50;9.95;;;;;;;16.11;75.90;99460.00;5095503;28;20493;-51
2021/12/30 09:00:47;;;;;;;11.35;9.10;;;;;;;15.97;75.10;99461.94;5095439;28;20031;-50
2021/12/30 09:03:14;;;;;;;17.85;10.63;;;;;;;15.77;75.38;99470.06;5095313;28;20489;-50
2021/12/30 09:05:40;;;;;;;19.30;10.75;;;;;;;15.61;75.51;99469.72;5094047;28;20123;-50
2021/12/30 09:08:06;;;;;;;25.95;10.40;;;;;;;15.46;76.14;99476.13;5095360;28;20123;-51
2021/12/30 09:10:37;;;;;;;19.50;12.35;;;;;;;15.42;76.49;99480.22;5095286;28;20525;-50
2021/12/30 09:13:04;;;;;;;14.95;8.98;;;;;;;15.50;76.21;99484.44;5095241;28;20025;-50
2021/12/30 09:15:30;;;;;;;13.75;8.00;;;;;;;15.55;76.29;99479.31;5095206;28;20032;-51
2021/12/30 09:17:57;;;;;;;7.47;6.65;;;;;;;15.61;76.65;99480.31;5093842;28;20027;-51
2021/12/30 09:20:24;;;;;;;13.75;10.13;;;;;;;15.82;76.66;99484.47;5093782;28;20513;-50
2021/12/30 09:22:52;;;;;;;20.13;9.73;;;;;;;16.03;75.11;99485.94;5095059;28;20024;-50
2021/12/30 09:25:22;;;;;;;9.10;6.65;;;;;;;16.14;75.21;99495.84;5094917;28;20028;-50
2021/12/30 09:27:49;;;;;;;11.98;8.27;;;;;;;16.24;74.77;99495.31;5094973;28;20035;-50
2021/12/30 09:30:16;;;;;;;12.25;5.97;;;;;;;16.20;74.72;99502.09;5094957;28;20035;-51
2021/12/30 09:32:43;;;;;;;14.35;10.40;;;;;;;16.32;74.96;99506.47;5094921;28;20494;-50
2021/12/30 09:35:10;;;;;;;12.93;5.20;;;;;;;16.42;74.55;99508.63;5093297;28;20041;-51
2021/12/30 09:37:37;;;;;;;7.22;3.88;;;;;;;16.35;74.06;99511.31;5094736;28;20036;-50
2021/12/30 09:40:05;;;;;;;11.48;6.97;;;;;;;16.21;74.47;99509.81;5094723;28;20012;-50
2021/12/30 09:42:31;;;;;;;11.00;6.47;;;;;;;16.35;74.81;99521.91;5094672;28;20494;-50
2021/12/30 09:44:57;;;;;;;9.45;6.43;;;;;;;16.37;74.72;99516.41;5093278;28;20097;-51
2021/12/30 09:47:23;;;;;;;8.32;5.32;;;;;;;16.44;74.98;99522.47;5094496;28;20474;-50
2021/12/30 09:49:52;;;;;;;11.40;4.50;;;;;;;16.54;74.49;99522.78;5093208;28;20025;-50
2021/12/30 09:52:18;;;;;;;4.53;2.40;;;;;;;16.71;74.60;99511.59;5094474;28;20074;-50
2021/12/30 09:54:44;;;;;;;8.70;5.22;;;;;;;16.97;73.40;99513.19;5094444;28;20494;-51
2021/12/30 09:57:09;;;;;;;4.55;3.72;;;;;;;17.05;72.87;99504.94;5094333;28;20120;-51
2021/12/30 09:59:35;;;;;;;16.27;8.77;;;;;;;17.13;72.99;99506.47;5094364;28;20028;-50
2021/12/30 10:02:01;;;;;;;10.43;6.35;;;;;;;17.21;73.14;99506.16;5094341;28;20133;-50
2021/12/30 10:04:34;;;;;;;7.40;4.28;;;;;;;17.63;72.37;99508.09;5094157;28;20054;-50
2021/12/30 10:07:03;;;;;;;4.53;2.65;;;;;;;17.96;71.42;99491.66;5093986;28;20043;-51
2021/12/30 10:09:52;;;;;;;6.32;2.72;;;;;;;18.03;70.55;99500.34;5094185;28;20025;-50
2021/12/30 10:12:44;;;;;;;4.07;3.17;;;;;;;17.84;71.01;99498.81;5094176;28;20039;-49
2021/12/30 10:15:11;;;;;;;3.38;1.13;;;;;;;17.84;71.01;99496.94;5094062;28;20032;-50
2021/12/30 10:17:37;;;;;;;8.75;4.53;;;;;;;17.90;71.20;99504.00;5094048;28;20028;-50
2021/12/30 10:20:25;;;;;;;4.43;1.42;;;;;;;18.05;70.02;99505.41;5093971;28;20021;-51
2021/12/30 10:22:55;;;;;;;4.30;3.55;;;;;;;18.14;69.12;99502.19;5093993;28;20177;-50
2021/12/30 10:25:32;;;;;;;4.22;2.78;;;;;;;18.23;69.03;99508.00;5093797;28;20073;-50
2021/12/30 10:28:22;;;;;;;3.65;1.70;;;;;;;18.24;69.11;99509.59;5093902;28;20028;-50
2021/12/30 10:30:51;;;;;;;6.03;3.33;;;;;;;18.26;69.36;99506.72;5093737;28;20099;-50
2021/12/30 10:33:29;;;;;;;13.65;4.90;;;;;;;18.43;69.07;99506.81;5093700;28;20024;-51
2021/12/30 10:35:55;;;;;;;12.05;4.05;;;;;;;18.56;68.65;99509.25;5093385;28;20525;-51
2021/12/30 10:38:27;;;;;;;5.35;2.92;;;;;;;18.70;68.80;99507.97;5092240;28;20070;-50
2021/12/30 10:40:53;;;;;;;9.50;3.53;;;;;;;18.83;68.54;99512.25;5093489;28;20078;-50
2021/12/30 10:43:27;;;;;;;2.15;1.02;;;;;;;18.90;67.10;99510.28;5093439;28;20103;-51
2021/12/30 10:46:14;;;;;;;6.38;2.65;;;;;;;18.89;67.76;99511.31;5093480;28;20034;-51
2021/12/30 10:48:48;;;;;;;6.13;3.38;;;;;;;18.97;67.18;99515.47;5092040;28;20053;-51
2021/12/30 10:51:24;;;;;;;10.38;1.52;;;;;;;19.12;66.77;99512.31;5093357;28;20020;-50
2021/12/30 10:53:52;;;;;;;8.70;1.98;;;;;;;19.12;66.53;99515.78;5093291;28;20081;-51
2021/12/30 10:56:37;;;;;;;5.95;3.35;;;;;;;19.31;66.38;99511.09;5091765;28;20024;-49
2021/12/30 10:59:10;;;;;;;6.63;4.70;;;;;;;19.26;66.41;99521.66;5093235;28;20030;-52
2021/12/30 11:01:39;;;;;;;19.02;9.23;;;;;;;19.31;66.69;99519.06;5091757;28;20214;-51
2021/12/30 11:04:04;;;;;;;3.97;3.47;;;;;;;19.44;66.22;99514.53;5093038;28;20065;-51
2021/12/30 11:06:30;;;;;;;7.32;4.38;;;;;;;19.48;65.68;99519.13;5091632;28;20447;-51
2021/12/30 11:09:12;;;;;;;7.43;5.45;;;;;;;19.49;65.08;99511.94;5091693;28;20016;-52
2021/12/30 11:11:44;;;;;;;6.18;3.00;;;;;;;19.42;64.94;99511.28;5092946;28;20107;-49
2021/12/30 11:14:14;;;;;;;8.35;5.30;;;;;;;19.48;64.80;99511.16;5092889;28;20035;-50
2021/12/30 11:17:01;;;;;;;7.47;4.30;;;;;;;19.64;64.97;99512.25;5092271;28;20505;-51
2021/12/30 11:19:29;;;;;;;5.32;4.53;;;;;;;19.83;64.44;99512.84;5092758;28;20508;-50
2021/12/30 11:21:58;;;;;;;5.65;3.92;;;;;;;19.94;63.90;99509.31;5092794;28;20024;-51